Time;durP1;ratioP1;P1;durP2;ratioP2;P2;SDS_P1;SDS_P2;PMS_P1;PMS_P2;Temp;Humidity;BMP_temperature;BMP_pressure;BME280_temperature;BME280_humidity;BME280_pressure;Samples;Min_cycle;Max_cycle;Signal;HPM_P1;HPM_P2
2021/01/14 00:01:20;;;;;;;0.63;0.63;;;2.50;99.90;;;;;;5031419;28;20119;-76
2021/01/14 00:03:46;;;;;;;4.18;0.60;;;2.50;99.90;;;;;;5013333;28;20080;-76
2021/01/14 00:06:13;;;;;;;0.50;0.50;;;2.50;99.90;;;;;;5031191;28;20022;-76
2021/01/14 00:08:39;;;;;;;0.55;0.55;;;2.40;99.90;;;;;;5013581;28;20025;-76
2021/01/14 00:11:05;;;;;;;0.60;0.60;;;2.50;99.90;;;;;;5013980;28;20400;-76
2021/01/14 00:13:30;;;;;;;0.40;0.40;;;2.50;99.90;;;;;;5031113;28;20099;-76
2021/01/14 00:15:56;;;;;;;0.60;0.60;;;2.40;99.90;;;;;;4997133;28;20025;-76
2021/01/14 00:18:22;;;;;;;0.47;0.47;;;2.50;99.90;;;;;;5013695;28;20378;-76
2021/01/14 00:20:47;;;;;;;0.50;0.50;;;2.50;99.90;;;;;;5031438;28;20026;-76
2021/01/14 00:23:13;;;;;;;2.78;0.90;;;2.50;99.90;;;;;;5031011;28;20489;-76
2021/01/14 00:25:39;;;;;;;0.80;0.80;;;2.50;99.90;;;;;;5031088;28;20370;-75
2021/01/14 00:28:05;;;;;;;2.42;1.60;;;2.50;99.90;;;;;;5031394;28;20417;-76
2021/01/14 00:30:31;;;;;;;4.88;2.30;;;2.50;99.90;;;;;;5031127;28;20034;-76
2021/01/14 00:35:29;;;;;;;1.42;0.90;;;2.40;99.90;;;;;;5068411;28;20075;-75
2021/01/14 00:37:55;;;;;;;0.50;0.50;;;2.40;99.90;;;;;;5053033;28;20064;-74
2021/01/14 00:40:27;;;;;;;1.45;0.90;;;2.50;99.90;;;;;;5052732;28;20107;-75
2021/01/14 00:43:05;;;;;;;1.40;1.30;;;2.40;99.90;;;;;;5071070;28;20078;-74
2021/01/14 00:45:32;;;;;;;0.70;0.70;;;2.50;99.90;;;;;;5070633;28;20032;-74
2021/01/14 00:47:59;;;;;;;2.17;1.33;;;2.30;99.90;;;;;;5071196;28;20299;-75
2021/01/14 00:50:31;;;;;;;0.95;0.90;;;2.40;99.90;;;;;;5070660;28;20039;-74
2021/01/14 00:52:57;;;;;;;0.60;0.60;;;2.30;99.90;;;;;;5070850;28;20037;-75
2021/01/14 00:55:23;;;;;;;0.60;0.60;;;2.30;99.90;;;;;;5052601;28;20024;-76
2021/01/14 00:57:49;;;;;;;0.50;0.50;;;2.20;99.90;;;;;;5052855;28;20051;-75
2021/01/14 01:00:18;;;;;;;0.50;0.50;;;2.20;99.90;;;;;;5070555;28;20029;-75
2021/01/14 01:02:49;;;;;;;0.50;0.50;;;2.20;99.90;;;;;;5070835;28;20024;-75
2021/01/14 01:05:16;;;;;;;1.42;0.70;;;2.30;99.90;;;;;;5070141;28;20021;-75
2021/01/14 01:07:59;;;;;;;0.47;0.45;;;2.20;99.90;;;;;;5070764;28;20031;-74
2021/01/14 01:10:26;;;;;;;0.30;0.30;;;2.20;99.90;;;;;;5070544;28;20036;-75
2021/01/14 01:12:54;;;;;;;0.40;0.40;;;2.20;99.90;;;;;;5070653;28;20099;-74
2021/01/14 01:15:20;;;;;;;0.40;0.40;;;2.20;99.90;;;;;;5070767;28;20028;-74
2021/01/14 01:17:45;;;;;;;0.40;0.40;;;2.10;99.90;;;;;;5074774;28;20078;-75
2021/01/14 01:20:12;;;;;;;0.50;0.50;;;2.20;99.90;;;;;;5074449;28;20425;-75
2021/01/14 01:22:37;;;;;;;0.50;0.50;;;2.10;99.90;;;;;;5074697;28;20055;-74
2021/01/14 01:25:04;;;;;;;0.70;0.70;;;2.10;99.90;;;;;;5074650;28;20024;-75
2021/01/14 01:27:29;;;;;;;0.50;0.50;;;2.10;99.90;;;;;;5074629;28;20032;-75
2021/01/14 01:29:55;;;;;;;0.50;0.50;;;2.10;99.90;;;;;;5075055;28;20025;-74
2021/01/14 01:32:21;;;;;;;0.60;0.60;;;2.10;99.90;;;;;;5075020;28;20028;-74
2021/01/14 01:34:47;;;;;;;0.50;0.50;;;2.20;99.90;;;;;;5074738;28;20033;-74
2021/01/14 01:37:13;;;;;;;0.45;0.45;;;2.10;99.90;;;;;;5074351;28;20426;-73
2021/01/14 01:39:39;;;;;;;0.77;0.50;;;2.10;99.90;;;;;;5056333;28;20021;-74
2021/01/14 01:42:05;;;;;;;0.60;0.60;;;2.00;99.90;;;;;;5056049;28;20028;-75
2021/01/14 01:44:31;;;;;;;0.50;0.50;;;2.00;99.90;;;;;;5074019;28;20024;-75
2021/01/14 01:47:03;;;;;;;0.30;0.30;;;2.10;99.90;;;;;;5074284;28;20479;-75
2021/01/14 01:49:28;;;;;;;;;;;2.00;99.90;;;;;;5074795;28;20487;-74
2021/01/14 01:51:54;;;;;;;0.30;0.30;;;2.00;99.90;;;;;;5055851;28;19905;-75
2021/01/14 01:54:20;;;;;;;0.40;0.40;;;2.00;99.90;;;;;;5055992;28;20052;-75
2021/01/14 01:56:49;;;;;;;0.60;0.60;;;2.00;99.90;;;;;;5073818;28;20078;-75
2021/01/14 01:59:17;;;;;;;0.73;0.73;;;2.20;99.90;;;;;;5073834;28;20099;-74
2021/01/14 02:01:43;;;;;;;0.80;0.80;;;2.20;99.90;;;;;;5055756;28;20048;-75
2021/01/14 02:04:09;;;;;;;0.63;0.63;;;2.20;99.90;;;;;;5073733;28;20098;-75
2021/01/14 02:06:46;;;;;;;0.65;0.50;;;2.10;99.90;;;;;;5073546;28;20027;-75
2021/01/14 02:09:12;;;;;;;0.50;0.50;;;2.20;99.90;;;;;;5073818;28;20017;-75
2021/01/14 02:11:43;;;;;;;0.60;0.60;;;2.20;99.90;;;;;;5073895;28;20028;-75
2021/01/14 02:14:23;;;;;;;0.95;0.73;;;2.20;99.90;;;;;;5055636;28;20020;-75
2021/01/14 02:16:50;;;;;;;0.52;0.52;;;2.10;99.90;;;;;;5074057;28;20500;-74
2021/01/14 02:19:39;;;;;;;0.77;0.77;;;2.10;99.90;;;;;;5073484;28;20138;-75
2021/01/14 02:22:37;;;;;;;0.60;0.60;;;2.10;99.90;;;;;;5055759;28;20024;-74
2021/01/14 02:25:19;;;;;;;0.82;0.60;;;2.20;99.90;;;;;;5055247;28;20063;-73
2021/01/14 02:27:46;;;;;;;0.52;0.52;;;2.10;99.90;;;;;;5073264;28;20025;-75
2021/01/14 02:30:12;;;;;;;0.47;0.40;;;2.10;99.90;;;;;;5073240;28;20090;-75
2021/01/14 02:32:41;;;;;;;0.88;0.65;;;2.00;99.90;;;;;;5073418;28;20028;-74
2021/01/14 02:35:07;;;;;;;0.65;0.65;;;2.00;99.90;;;;;;5073136;28;20037;-74
2021/01/14 02:37:33;;;;;;;1.52;1.00;;;2.00;99.90;;;;;;5073689;28;20029;-75
2021/01/14 02:39:59;;;;;;;1.10;1.00;;;2.00;99.90;;;;;;5073146;28;20158;-74
2021/01/14 02:42:25;;;;;;;0.77;0.77;;;2.10;99.90;;;;;;5073136;28;20043;-75
2021/01/14 02:44:50;;;;;;;0.90;0.90;;;2.00;99.90;;;;;;5072894;28;20099;-74
2021/01/14 02:47:17;;;;;;;1.00;0.90;;;2.00;99.90;;;;;;5073235;28;20023;-74
2021/01/14 02:49:53;;;;;;;0.90;0.90;;;2.00;99.90;;;;;;5072821;28;20027;-75
2021/01/14 02:52:19;;;;;;;1.30;0.88;;;2.10;99.90;;;;;;5073030;28;20044;-74
2021/01/14 02:54:46;;;;;;;1.23;1.00;;;1.90;99.90;;;;;;5055135;28;20034;-74
2021/01/14 02:57:12;;;;;;;0.90;0.90;;;1.90;99.90;;;;;;5072868;28;20025;-75
2021/01/14 02:59:39;;;;;;;1.23;1.13;;;1.80;99.90;;;;;;5054688;28;20025;-74
2021/01/14 03:02:04;;;;;;;1.85;1.30;;;1.90;99.90;;;;;;5038192;28;20025;-72
2021/01/14 03:04:30;;;;;;;1.30;1.20;;;1.90;99.90;;;;;;5054622;28;20051;-72
2021/01/14 03:06:56;;;;;;;1.75;1.60;;;1.80;99.90;;;;;;5072533;28;20024;-72
2021/01/14 03:09:21;;;;;;;1.20;1.10;;;1.90;99.90;;;;;;5072772;28;20024;-72
2021/01/14 03:11:47;;;;;;;1.50;1.40;;;1.90;99.90;;;;;;5073079;28;20028;-72
2021/01/14 03:14:14;;;;;;;2.22;1.67;;;1.90;99.90;;;;;;5072657;28;20028;-72
2021/01/14 03:16:40;;;;;;;1.40;1.35;;;1.90;99.90;;;;;;5072861;28;20032;-72
2021/01/14 03:19:06;;;;;;;1.67;1.58;;;1.80;99.90;;;;;;5072581;28;20469;-72
2021/01/14 03:21:31;;;;;;;1.90;1.70;;;1.80;99.90;;;;;;5072644;28;20029;-72
2021/01/14 03:23:57;;;;;;;2.15;1.95;;;1.80;99.90;;;;;;5072387;28;20043;-72
2021/01/14 03:26:23;;;;;;;4.75;1.77;;;1.80;99.90;;;;;;5054523;28;20017;-72
2021/01/14 03:28:50;;;;;;;2.13;1.60;;;1.80;99.90;;;;;;5072385;28;20025;-72
2021/01/14 03:31:16;;;;;;;2.20;2.00;;;1.90;99.90;;;;;;5054475;28;20020;-72
2021/01/14 03:33:44;;;;;;;2.67;2.30;;;1.90;99.90;;;;;;5072359;28;20037;-72
2021/01/14 03:36:14;;;;;;;3.00;2.05;;;1.90;99.90;;;;;;5071967;28;20052;-72
2021/01/14 03:38:40;;;;;;;2.20;2.00;;;1.90;99.90;;;;;;5053553;28;20107;-72
2021/01/14 03:41:10;;;;;;;1.95;1.75;;;1.90;99.90;;;;;;5071945;28;20112;-72
2021/01/14 03:43:36;;;;;;;2.20;1.98;;;1.90;99.90;;;;;;5072098;28;20021;-72
2021/01/14 03:46:22;;;;;;;2.97;2.60;;;1.90;99.90;;;;;;5053784;28;20070;-72
2021/01/14 03:48:49;;;;;;;7.32;3.17;;;1.80;99.90;;;;;;5071383;28;20036;-72
2021/01/14 03:51:22;;;;;;;2.08;1.80;;;1.70;99.90;;;;;;5071738;28;20036;-72
2021/01/14 03:53:50;;;;;;;2.40;2.20;;;1.70;99.90;;;;;;5071864;28;20035;-72
2021/01/14 03:56:16;;;;;;;2.13;1.92;;;1.60;99.90;;;;;;5053683;28;20059;-72
2021/01/14 03:58:42;;;;;;;3.47;2.40;;;1.50;99.90;;;;;;5071740;28;20024;-72
2021/01/14 04:01:08;;;;;;;2.97;2.45;;;1.60;99.90;;;;;;5071539;28;20020;-72
2021/01/14 04:03:39;;;;;;;3.67;2.55;;;1.60;99.90;;;;;;5071596;28;20122;-73
2021/01/14 04:06:05;;;;;;;2.70;2.33;;;1.60;99.90;;;;;;5071081;28;20107;-72
2021/01/14 04:08:30;;;;;;;11.57;5.57;;;1.50;99.90;;;;;;5071668;28;20587;-72
2021/01/14 04:10:56;;;;;;;2.92;2.03;;;1.50;99.90;;;;;;5071489;28;20361;-72
2021/01/14 04:13:22;;;;;;;2.90;2.60;;;1.40;99.90;;;;;;5053573;28;20056;-72
2021/01/14 04:15:48;;;;;;;4.97;2.53;;;1.30;99.90;;;;;;5071298;28;20434;-72
2021/01/14 04:18:13;;;;;;;5.40;2.63;;;1.30;99.90;;;;;;5071342;28;20028;-72
2021/01/14 04:20:39;;;;;;;4.03;2.05;;;1.30;99.90;;;;;;5071208;28;20518;-72
2021/01/14 04:23:05;;;;;;;3.33;2.70;;;1.30;99.90;;;;;;5071353;28;20024;-72
2021/01/14 04:25:31;;;;;;;4.28;2.70;;;1.30;99.90;;;;;;5071085;28;20016;-72
2021/01/14 04:27:58;;;;;;;7.05;2.75;;;1.40;99.90;;;;;;5071323;28;20052;-72
2021/01/14 04:30:24;;;;;;;4.57;2.72;;;1.30;99.90;;;;;;5071233;28;20027;-72
2021/01/14 04:32:57;;;;;;;4.65;2.42;;;1.30;99.90;;;;;;5071167;28;20434;-72
2021/01/14 04:35:25;;;;;;;4.15;2.95;;;1.30;99.90;;;;;;5070947;28;20372;-72
2021/01/14 04:37:51;;;;;;;3.22;2.65;;;1.40;99.90;;;;;;5071130;28;20137;-72
2021/01/14 04:40:17;;;;;;;5.00;2.70;;;1.40;99.90;;;;;;5053089;28;20484;-72
2021/01/14 04:42:49;;;;;;;2.67;2.47;;;1.40;99.90;;;;;;5071189;28;20383;-73
2021/01/14 04:45:17;;;;;;;2.90;2.13;;;1.50;99.90;;;;;;5070774;28;20046;-72
2021/01/14 04:47:48;;;;;;;6.47;2.92;;;1.30;99.90;;;;;;5071026;28;20017;-72
2021/01/14 04:50:16;;;;;;;3.05;2.67;;;1.20;99.90;;;;;;5069969;28;20040;-72
2021/01/14 04:52:42;;;;;;;2.22;2.00;;;1.40;99.90;;;;;;5070946;28;20066;-72
2021/01/14 04:55:15;;;;;;;3.58;2.72;;;1.40;99.90;;;;;;5070592;28;20048;-72
2021/01/14 04:57:47;;;;;;;3.05;2.42;;;1.40;99.90;;;;;;5071113;28;20028;-72
2021/01/14 05:00:14;;;;;;;20.83;2.63;;;1.30;99.90;;;;;;5070957;28;20067;-72
2021/01/14 05:02:58;;;;;;;2.08;1.90;;;1.40;99.90;;;;;;5071301;28;20376;-72
2021/01/14 05:05:25;;;;;;;3.90;2.50;;;1.40;99.90;;;;;;5070644;28;20025;-72
2021/01/14 05:08:09;;;;;;;3.05;2.10;;;1.40;99.90;;;;;;5053065;28;20476;-72
2021/01/14 05:10:36;;;;;;;5.35;2.30;;;1.50;99.90;;;;;;5070835;28;20027;-72
2021/01/14 05:13:03;;;;;;;3.53;2.33;;;1.40;99.90;;;;;;5070846;28;20032;-73
2021/01/14 05:15:29;;;;;;;2.45;1.98;;;1.60;99.90;;;;;;5070852;28;20074;-72
2021/01/14 05:17:59;;;;;;;3.92;2.78;;;1.60;99.90;;;;;;5053052;28;20480;-72
2021/01/14 05:20:26;;;;;;;5.50;2.70;;;1.70;99.90;;;;;;5070637;28;20028;-73
2021/01/14 05:23:00;;;;;;;3.35;2.40;;;1.80;99.90;;;;;;5070557;28;20035;-72
2021/01/14 05:25:26;;;;;;;4.82;2.53;;;1.80;99.90;;;;;;5070448;28;20021;-72
2021/01/14 05:27:52;;;;;;;3.65;2.70;;;1.60;99.90;;;;;;5070609;28;20582;-73
2021/01/14 05:30:19;;;;;;;3.60;2.75;;;1.60;99.90;;;;;;5070511;28;20031;-73
2021/01/14 05:32:46;;;;;;;2.70;2.25;;;1.70;99.90;;;;;;5070642;28;20377;-72
2021/01/14 05:35:36;;;;;;;2.15;1.95;;;1.60;99.90;;;;;;5070311;28;20032;-72
2021/01/14 05:38:03;;;;;;;2.17;1.95;;;1.60;99.90;;;;;;5069777;28;20040;-73
2021/01/14 05:40:30;;;;;;;3.17;1.83;;;1.60;99.90;;;;;;5070264;28;20380;-72
2021/01/14 05:43:06;;;;;;;2.50;1.90;;;1.70;99.90;;;;;;5070517;28;20024;-72
2021/01/14 05:45:33;;;;;;;4.00;2.17;;;1.50;99.90;;;;;;5070365;28;20024;-72
2021/01/14 05:48:12;;;;;;;2.20;2.00;;;1.30;99.90;;;;;;5070514;28;20055;-72
2021/01/14 05:50:46;;;;;;;2.55;1.95;;;1.30;99.90;;;;;;5070177;28;20052;-72
2021/01/14 05:53:13;;;;;;;2.92;2.10;;;1.40;99.90;;;;;;5052685;28;20036;-72
2021/01/14 05:55:42;;;;;;;2.35;1.92;;;1.50;99.90;;;;;;5070087;28;20111;-73
2021/01/14 05:58:11;;;;;;;2.67;2.13;;;1.50;99.90;;;;;;5070244;28;20115;-72
2021/01/14 06:00:42;;;;;;;1.80;1.70;;;1.40;99.90;;;;;;5070167;28;20220;-72
2021/01/14 06:03:27;;;;;;;1.73;1.55;;;1.40;99.90;;;;;;5073311;28;20123;-73
2021/01/14 06:05:57;;;;;;;2.28;1.88;;;1.40;99.90;;;;;;5073528;28;20054;-72
2021/01/14 06:08:24;;;;;;;1.98;1.67;;;1.30;99.90;;;;;;5039185;28;20047;-72
2021/01/14 06:10:50;;;;;;;1.67;1.58;;;1.50;99.90;;;;;;5073690;28;20397;-72
2021/01/14 06:13:16;;;;;;;2.08;1.50;;;1.60;99.90;;;;;;5073640;28;20104;-73
2021/01/14 06:15:42;;;;;;;1.40;1.30;;;1.60;99.90;;;;;;5073342;28;20383;-72
2021/01/14 06:18:10;;;;;;;1.73;1.33;;;1.50;99.90;;;;;;5073800;28;20032;-72
2021/01/14 06:20:49;;;;;;;6.03;1.98;;;1.50;99.90;;;;;;5073486;28;20078;-73
2021/01/14 06:23:17;;;;;;;2.53;1.90;;;1.50;99.90;;;;;;5073725;28;20091;-72
2021/01/14 06:25:48;;;;;;;1.65;1.55;;;1.50;99.90;;;;;;5073443;28;20017;-72
2021/01/14 06:28:14;;;;;;;1.73;1.63;;;1.70;99.90;;;;;;5073781;28;20019;-72
2021/01/14 06:31:01;;;;;;;1.52;1.40;;;1.80;99.90;;;;;;5073365;28;20036;-73
2021/01/14 06:36:10;;;;;;;2.42;1.88;;;1.50;99.90;;;;;;5072824;28;20565;-73
2021/01/14 06:38:44;;;;;;;4.35;2.92;;;1.50;99.90;;;;;;5073632;28;20020;-73
2021/01/14 06:41:15;;;;;;;4.47;3.33;;;1.30;99.90;;;;;;5073396;28;20020;-74
2021/01/14 06:43:42;;;;;;;5.72;3.95;;;1.10;99.90;;;;;;5073701;28;20036;-75
2021/01/14 06:46:15;;;;;;;4.63;4.13;;;1.00;99.90;;;;;;5073329;28;20021;-75
2021/01/14 06:48:58;;;;;;;6.07;4.68;;;1.00;99.90;;;;;;5055205;28;20099;-75
2021/01/14 06:51:34;;;;;;;14.10;5.85;;;0.90;99.90;;;;;;5055119;28;20028;-75
2021/01/14 06:54:09;;;;;;;9.80;5.03;;;1.00;99.90;;;;;;5073116;28;20476;-75
2021/01/14 06:56:56;;;;;;;6.45;4.03;;;1.10;99.90;;;;;;5072938;28;20046;-74
2021/01/14 06:59:24;;;;;;;8.73;5.07;;;1.10;99.90;;;;;;5055982;28;20036;-75
2021/01/14 07:02:31;;;;;;;7.68;5.07;;;1.00;99.90;;;;;;5054627;28;20399;-75
2021/01/14 07:05:05;;;;;;;24.98;8.45;;;1.00;99.90;;;;;;5072350;28;20119;-74
2021/01/14 07:07:47;;;;;;;12.95;6.72;;;1.10;99.90;;;;;;5054623;28;20028;-75
2021/01/14 07:10:16;;;;;;;9.15;5.95;;;1.10;99.90;;;;;;5072695;28;20063;-73
2021/01/14 07:12:45;;;;;;;14.05;5.85;;;1.20;99.90;;;;;;5071622;28;20100;-73
2021/01/14 07:15:17;;;;;;;14.05;5.80;;;1.20;99.90;;;;;;5072051;28;20028;-73
2021/01/14 07:17:45;;;;;;;17.48;6.05;;;1.20;99.90;;;;;;5072318;28;20024;-73
2021/01/14 07:20:13;;;;;;;10.25;5.75;;;1.30;99.90;;;;;;5054646;28;20025;-73
2021/01/14 07:22:47;;;;;;;10.70;6.45;;;1.30;99.90;;;;;;5054542;28;20020;-73
2021/01/14 07:25:14;;;;;;;21.42;7.45;;;1.40;99.90;;;;;;5054538;28;20078;-73
2021/01/14 07:27:43;;;;;;;11.95;6.10;;;1.40;99.90;;;;;;5072174;28;20455;-72
2021/01/14 07:30:10;;;;;;;18.52;8.43;;;1.30;99.90;;;;;;5087418;28;20024;-73
2021/01/14 07:32:55;;;;;;;14.95;6.57;;;1.40;99.90;;;;;;5057260;28;20372;-72
2021/01/14 07:35:37;;;;;;;9.00;6.13;;;1.40;99.90;;;;;;5092373;28;20040;-73
2021/01/14 07:38:07;;;;;;;6.53;5.13;;;1.50;99.90;;;;;;5074266;28;20027;-73
2021/01/14 07:40:35;;;;;;;6.38;4.18;;;1.40;99.90;;;;;;5092167;28;20502;-72
2021/01/14 07:43:04;;;;;;;7.25;4.05;;;1.50;99.90;;;;;;5090049;28;20024;-73
2021/01/14 07:45:31;;;;;;;5.10;4.25;;;1.40;99.90;;;;;;5052559;28;20099;-73
2021/01/14 07:48:16;;;;;;;9.38;5.28;;;1.30;99.90;;;;;;5071023;28;20606;-73
2021/01/14 07:50:56;;;;;;;6.18;4.05;;;1.20;99.90;;;;;;5070848;28;20556;-73
2021/01/14 07:53:22;;;;;;;5.13;3.70;;;1.20;99.90;;;;;;5053121;28;20074;-72
2021/01/14 07:55:48;;;;;;;7.35;3.70;;;1.30;99.90;;;;;;5070792;28;20021;-73
2021/01/14 07:58:20;;;;;;;4.43;3.65;;;1.40;99.90;;;;;;5070589;28;20029;-73
2021/01/14 08:01:07;;;;;;;;;;;1.50;99.90;;;;;;5071148;28;20024;-73
2021/01/14 08:03:37;;;;;;;9.70;5.57;;;1.60;99.90;;;;;;5053077;28;19908;-73
2021/01/14 08:06:22;;;;;;;8.77;5.50;;;1.50;99.90;;;;;;5052912;28;20385;-73
2021/01/14 08:08:58;;;;;;;11.00;5.38;;;1.30;99.90;;;;;;5036355;28;20031;-72
2021/01/14 08:11:26;;;;;;;15.98;5.70;;;1.30;99.90;;;;;;5070764;28;20035;-73
2021/01/14 08:14:11;;;;;;;18.90;8.00;;;1.30;99.90;;;;;;5052654;28;20111;-73
2021/01/14 08:16:46;;;;;;;6.53;4.85;;;1.40;99.90;;;;;;5070764;28;20029;-72
2021/01/14 08:19:33;;;;;;;17.10;5.32;;;1.40;99.90;;;;;;5063808;28;20491;-72
2021/01/14 08:21:58;;;;;;;12.10;6.38;;;1.30;99.90;;;;;;5047082;28;20165;-73
2021/01/14 08:24:33;;;;;;;7.93;5.43;;;1.40;99.90;;;;;;5050176;28;20103;-72
2021/01/14 08:27:07;;;;;;;10.85;5.53;;;1.40;99.90;;;;;;5037236;28;20033;-75
2021/01/14 08:29:34;;;;;;;14.60;5.45;;;1.50;99.90;;;;;;5068876;28;20020;-74
2021/01/14 08:32:00;;;;;;;14.43;5.70;;;1.70;99.90;;;;;;5037250;28;20017;-74
2021/01/14 08:34:27;;;;;;;22.05;5.50;;;1.80;99.90;;;;;;5059244;28;20032;-75
2021/01/14 08:36:54;;;;;;;10.18;4.68;;;1.80;99.90;;;;;;5057841;28;20028;-74
2021/01/14 08:39:22;;;;;;;13.23;5.55;;;1.60;99.90;;;;;;5051749;28;20017;-73
2021/01/14 08:41:49;;;;;;;12.65;5.72;;;1.70;99.90;;;;;;5046313;28;20089;-73
2021/01/14 08:44:17;;;;;;;15.52;5.88;;;1.70;99.90;;;;;;5020108;28;20025;-74
2021/01/14 08:46:48;;;;;;;18.33;6.00;;;1.60;99.90;;;;;;5047883;28;20078;-72
2021/01/14 08:49:16;;;;;;;23.03;6.73;;;1.70;99.90;;;;;;5065441;28;20021;-75
2021/01/14 08:51:43;;;;;;;11.15;5.05;;;1.90;99.90;;;;;;5041906;28;20035;-75
2021/01/14 08:54:09;;;;;;;13.25;5.88;;;1.80;99.90;;;;;;5059151;28;20033;-73
2021/01/14 08:56:36;;;;;;;13.68;5.70;;;1.90;99.90;;;;;;5024865;28;20025;-75
2021/01/14 08:59:13;;;;;;;15.65;5.50;;;1.70;99.90;;;;;;5037164;28;20109;-74
2021/01/14 09:01:40;;;;;;;6.53;4.55;;;1.60;99.90;;;;;;5037628;28;20029;-75
2021/01/14 09:04:07;;;;;;;10.73;5.32;;;1.50;99.90;;;;;;5027266;28;20040;-75
2021/01/14 09:06:42;;;;;;;17.25;5.70;;;1.50;99.90;;;;;;5030865;28;20443;-74
2021/01/14 09:09:15;;;;;;;5.60;5.03;;;1.60;99.90;;;;;;5033289;28;20031;-73
2021/01/14 09:11:41;;;;;;;15.55;8.65;;;1.50;99.90;;;;;;5050096;28;20037;-73
2021/01/14 09:14:15;;;;;;;9.43;5.68;;;1.30;99.90;;;;;;5049706;28;20078;-72
2021/01/14 09:16:43;;;;;;;5.03;3.67;;;0.90;99.90;;;;;;5032024;28;20033;-73
2021/01/14 09:19:17;;;;;;;14.60;6.82;;;0.40;99.90;;;;;;5031988;28;20082;-73
2021/01/14 09:21:44;;;;;;;7.85;5.63;;;0.20;99.90;;;;;;5066419;28;20024;-73
2021/01/14 09:24:11;;;;;;;9.10;3.83;;;-0.10;99.90;;;;;;5043692;28;20029;-73
2021/01/14 09:26:38;;;;;;;16.20;8.32;;;-0.10;99.90;;;;;;5053537;28;20376;-72
2021/01/14 09:29:11;;;;;;;29.05;13.05;;;0.00;99.90;;;;;;5069650;28;20020;-73
2021/01/14 09:31:38;;;;;;;20.90;8.05;;;-0.10;99.90;;;;;;5067931;28;20082;-73
2021/01/14 09:34:04;;;;;;;8.38;3.67;;;-0.30;99.90;;;;;;5043901;28;20552;-74
2021/01/14 09:36:33;;;;;;;8.52;2.95;;;-0.60;99.90;;;;;;5052324;28;20032;-75
2021/01/14 09:39:07;;;;;;;7.47;3.70;;;-0.70;99.90;;;;;;5073675;28;20033;-74
2021/01/14 09:41:38;;;;;;;6.95;3.33;;;-0.70;99.90;;;;;;5073510;28;20377;-75
2021/01/14 09:44:13;;;;;;;6.35;1.85;;;-0.70;99.90;;;;;;5055937;28;20021;-75
2021/01/14 09:46:43;;;;;;;2.90;2.05;;;-0.80;99.90;;;;;;5054009;28;20094;-75
2021/01/14 09:49:19;;;;;;;5.57;3.95;;;-0.80;99.90;;;;;;5068885;28;20048;-74
2021/01/14 09:51:46;;;;;;;9.25;3.70;;;-0.90;99.90;;;;;;5062301;28;20051;-73
2021/01/14 09:54:13;;;;;;;3.78;2.33;;;-0.90;99.90;;;;;;5041405;28;20025;-72
2021/01/14 09:56:49;;;;;;;7.70;3.50;;;-1.00;99.90;;;;;;5054360;28;20096;-73
2021/01/14 09:59:36;;;;;;;21.95;8.63;;;-1.10;99.90;;;;;;5072603;28;20029;-75
2021/01/14 10:02:22;;;;;;;4.90;3.10;;;-1.00;99.90;;;;;;5047446;28;20027;-74
2021/01/14 10:04:57;;;;;;;3.67;2.50;;;-0.80;99.90;;;;;;5044618;28;20055;-73
2021/01/14 10:07:23;;;;;;;7.13;2.40;;;-0.90;99.90;;;;;;5035250;28;20585;-73
2021/01/14 10:09:53;;;;;;;8.77;2.50;;;-1.00;99.90;;;;;;5053107;28;20067;-74
2021/01/14 10:12:20;;;;;;;9.02;2.92;;;-1.10;99.90;;;;;;5044003;28;20029;-72
2021/01/14 10:14:45;;;;;;;2.63;1.58;;;-1.00;99.90;;;;;;5063692;28;20021;-74
2021/01/14 10:17:16;;;;;;;1.85;1.50;;;-0.90;99.90;;;;;;5060917;28;20644;-74
2021/01/14 10:19:47;;;;;;;3.45;2.30;;;-1.10;99.90;;;;;;5062568;28;20476;-73
2021/01/14 10:22:13;;;;;;;2.30;1.92;;;-1.20;99.90;;;;;;5071724;28;20044;-73
2021/01/14 10:24:39;;;;;;;5.22;1.88;;;-1.20;99.90;;;;;;5044044;28;20025;-74
2021/01/14 10:27:16;;;;;;;5.95;3.90;;;-1.00;99.90;;;;;;5061398;28;20029;-74
2021/01/14 10:29:43;;;;;;;3.75;2.20;;;-0.90;99.90;;;;;;5044904;28;20483;-74
2021/01/14 10:32:23;;;;;;;4.25;2.28;;;-1.10;99.90;;;;;;5057946;28;20025;-74
2021/01/14 10:34:50;;;;;;;2.40;1.80;;;-1.00;99.90;;;;;;5052608;28;20029;-74
2021/01/14 10:37:18;;;;;;;7.15;2.42;;;-1.10;99.90;;;;;;5061881;28;20024;-74
2021/01/14 10:39:44;;;;;;;5.40;2.83;;;-1.00;99.90;;;;;;5029029;28;20104;-75
2021/01/14 10:42:27;;;;;;;3.03;1.98;;;-1.00;99.90;;;;;;5061698;28;20155;-74
2021/01/14 10:44:58;;;;;;;3.75;2.08;;;-0.90;99.90;;;;;;5065129;28;20020;-74
2021/01/14 10:47:24;;;;;;;5.82;2.38;;;-0.80;99.90;;;;;;5062047;28;20017;-74
2021/01/14 10:49:50;;;;;;;7.75;4.13;;;-0.80;99.90;;;;;;5071490;28;20028;-74
2021/01/14 10:52:16;;;;;;;5.53;3.58;;;-0.90;99.90;;;;;;5059887;28;20079;-74
2021/01/14 10:54:42;;;;;;;7.45;2.90;;;-0.90;99.90;;;;;;5043597;28;20021;-75
2021/01/14 10:57:07;;;;;;;5.13;2.33;;;-0.80;99.90;;;;;;5042893;28;20032;-74
2021/01/14 10:59:33;;;;;;;12.65;3.17;;;-0.70;99.90;;;;;;5057274;28;20068;-75
2021/01/14 11:02:06;;;;;;;4.38;1.70;;;-0.70;99.90;;;;;;5044129;28;20044;-74
2021/01/14 11:04:32;;;;;;;6.35;1.63;;;-0.70;99.90;;;;;;5033826;28;20193;-74
2021/01/14 11:06:58;;;;;;;8.00;1.40;;;-0.90;99.90;;;;;;5056435;28;20424;-74
2021/01/14 11:09:24;;;;;;;1.80;1.58;;;-1.00;99.90;;;;;;5055988;28;20020;-74
2021/01/14 11:11:50;;;;;;;2.55;1.98;;;-1.00;99.90;;;;;;5052291;28;20635;-74
2021/01/14 11:14:17;;;;;;;6.28;1.90;;;-1.10;99.90;;;;;;5062316;28;20063;-74
2021/01/14 11:16:43;;;;;;;4.30;1.45;;;-1.10;99.90;;;;;;5060086;28;20029;-74
2021/01/14 11:19:10;;;;;;;3.88;1.90;;;-1.10;99.90;;;;;;5057490;28;20055;-75
2021/01/14 11:21:37;;;;;;;1.98;1.55;;;-1.10;99.90;;;;;;5055444;28;20500;-74
2021/01/14 11:24:06;;;;;;;2.35;1.58;;;-1.00;99.90;;;;;;5065513;28;20047;-73
2021/01/14 11:26:32;;;;;;;2.03;1.63;;;-1.00;99.90;;;;;;5056083;28;20020;-74
2021/01/14 11:28:58;;;;;;;4.35;1.90;;;-0.90;99.90;;;;;;5034473;28;20448;-75
2021/01/14 11:31:25;;;;;;;4.85;1.55;;;-1.00;99.90;;;;;;5063018;28;20024;-74
2021/01/14 11:33:51;;;;;;;5.40;1.70;;;-1.00;99.90;;;;;;5054656;28;20093;-74
2021/01/14 11:36:21;;;;;;;4.65;2.45;;;-0.90;99.90;;;;;;5057179;28;20024;-73
2021/01/14 11:38:49;;;;;;;2.47;1.88;;;-0.80;99.90;;;;;;5052201;28;20075;-74
2021/01/14 11:41:22;;;;;;;5.50;2.65;;;-0.80;99.90;;;;;;5059143;28;20021;-74
2021/01/14 11:43:48;;;;;;;3.45;2.13;;;-0.90;99.90;;;;;;5069424;28;20020;-74
2021/01/14 11:46:22;;;;;;;4.82;1.85;;;-0.90;99.90;;;;;;5065330;28;20501;-74
2021/01/14 11:48:48;;;;;;;11.85;1.88;;;-0.80;99.90;;;;;;5053603;28;20070;-75
2021/01/14 11:51:14;;;;;;;5.97;4.90;;;-0.70;99.90;;;;;;5045270;28;20104;-73
2021/01/14 11:53:40;;;;;;;4.63;1.90;;;-0.60;99.90;;;;;;5067473;28;20024;-74
2021/01/14 11:56:06;;;;;;;3.10;1.65;;;-0.50;99.90;;;;;;5065653;28;20024;-76
2021/01/14 11:58:32;;;;;;;12.82;3.58;;;-0.40;99.90;;;;;;5056562;28;20086;-74
2021/01/14 12:00:58;;;;;;;14.70;2.80;;;-0.30;99.90;;;;;;5018890;28;20485;-74
2021/01/14 12:03:24;;;;;;;1.98;1.67;;;-0.10;99.90;;;;;;5062761;28;20058;-73
2021/01/14 12:05:50;;;;;;;2.63;1.85;;;-0.30;99.90;;;;;;5043086;28;20461;-74
2021/01/14 12:08:16;;;;;;;3.08;2.25;;;-0.50;99.90;;;;;;5067190;28;20039;-73
2021/01/14 12:10:42;;;;;;;3.90;2.55;;;-0.60;99.90;;;;;;5058399;28;20099;-74
2021/01/14 12:13:07;;;;;;;8.73;2.95;;;-0.60;99.90;;;;;;5051670;28;20585;-75
2021/01/14 12:15:33;;;;;;;2.00;1.80;;;-0.80;99.90;;;;;;5059585;28;20074;-74
2021/01/14 12:17:59;;;;;;;5.85;3.17;;;-0.70;99.90;;;;;;5053020;28;20039;-74
2021/01/14 12:20:25;;;;;;;5.75;3.20;;;-0.80;99.90;;;;;;5063662;28;20404;-74
2021/01/14 12:22:52;;;;;;;7.07;3.45;;;-0.90;99.90;;;;;;5040071;28;20051;-75
2021/01/14 12:25:18;;;;;;;8.13;3.95;;;-0.90;99.90;;;;;;5031716;28;20044;-75
2021/01/14 12:27:44;;;;;;;7.50;3.58;;;-0.70;99.90;;;;;;5035921;28;20025;-75
2021/01/14 12:30:10;;;;;;;5.65;3.05;;;-0.60;99.90;;;;;;5063841;28;20055;-75
2021/01/14 12:32:37;;;;;;;3.17;2.53;;;-0.50;99.90;;;;;;5054936;28;20468;-75
2021/01/14 12:35:05;;;;;;;5.13;3.22;;;-0.60;99.90;;;;;;5062065;28;20055;-75
2021/01/14 12:37:32;;;;;;;9.55;2.78;;;-0.40;99.90;;;;;;5057956;28;20528;-75
2021/01/14 12:39:58;;;;;;;5.80;3.30;;;-0.40;99.90;;;;;;5068175;28;20081;-75
2021/01/14 12:42:24;;;;;;;7.47;2.45;;;-0.20;99.90;;;;;;5063905;28;20511;-75
2021/01/14 12:44:49;;;;;;;4.82;1.90;;;-0.30;99.90;;;;;;5055028;28;20028;-75
2021/01/14 12:47:15;;;;;;;2.28;2.00;;;-0.30;99.90;;;;;;5059891;28;20017;-75
2021/01/14 12:49:41;;;;;;;6.13;3.05;;;-0.10;99.90;;;;;;5054663;28;20694;-75
2021/01/14 12:52:07;;;;;;;4.75;2.08;;;-0.10;99.90;;;;;;5037134;28;20453;-75
2021/01/14 12:54:32;;;;;;;4.47;2.33;;;-0.20;99.90;;;;;;5041564;28;20020;-75
2021/01/14 12:56:58;;;;;;;16.50;3.38;;;-0.30;99.90;;;;;;5046397;28;20108;-75
2021/01/14 12:59:24;;;;;;;2.83;2.05;;;-0.30;99.90;;;;;;5040286;28;20071;-74
2021/01/14 13:01:49;;;;;;;2.53;2.03;;;-0.30;99.90;;;;;;5021087;28;20520;-75
2021/01/14 13:04:16;;;;;;;6.57;2.40;;;-0.40;99.90;;;;;;5059268;28;20104;-75
2021/01/14 13:06:43;;;;;;;4.28;2.53;;;-0.40;99.90;;;;;;5059451;28;20096;-75
2021/01/14 13:09:10;;;;;;;3.90;2.28;;;-0.30;99.90;;;;;;5060120;28;20021;-75